• Join FlightAware (Why Join?)
  • Login
  • US Flag 
03:56PM EDT


 

Airport Tracker/Info


-or-


 

Live Flight TrackerFlight Track Log ✈ N2024V ✈ 01-Jul-2013 ✈ W22 - KJZI

Flight Track Log - Related Links

Times and Time Zones

All times are in EDT time to prevent confusion due to time zone crossing. See the N2024V flight status page for this flight to view local times or setup timezone preferences in your user account.

Time Position Orientation Groundspeed Altitude Reporting Facility
EDT Latitude Longitude Course Direction KTS MPH feet Rate Location/Type
10:42AM 38.7380 -80.2500 180° South  Level FlightAware Approximate
10:43AM 38.6855 -80.2500 180° South  Level FlightAware Approximate
10:44AM 38.6329 -80.2500 177° South  Level FlightAware Approximate
10:45AM 38.5805 -80.2462 177° South  Level FlightAware Approximate
10:46AM 38.5280 -80.2425 177° South  Level FlightAware Approximate
10:47AM 38.4756 -80.2387 177° South  Level FlightAware Approximate
10:48AM 38.4231 -80.2350 177° South  Level FlightAware Approximate
10:49AM 38.3707 -80.2322 178° South  Level FlightAware Approximate
10:50AM 38.3181 -80.2303 178° South  Level FlightAware Approximate
10:50AM 38.7619 -80.2697 178° South 144 166 8,100  Level Washington Center
10:51AM 38.2656 -80.2284 178° South  Level FlightAware Approximate
10:51AM 38.7117 -80.2744 184° South 144 166 8,100  Level Washington Center
10:52AM 38.2131 -80.2265 178° South  Level FlightAware Approximate
10:52AM 38.6678 -80.2742 180° South 149 171 8,100  Level Washington Center
10:53AM 38.1606 -80.2245 178° South  Level FlightAware Approximate
10:53AM 38.6242 -80.2714 177° South 149 171 8,100  Level Washington Center
10:54AM 38.1081 -80.2226 178° South  Level FlightAware Approximate
10:54AM 38.5847 -80.2717 180° South 149 171 8,100  Level Washington Center
10:55AM 38.0556 -80.2207 178° South  Level FlightAware Approximate
10:55AM 38.5428 -80.2717 180° South 154 177 8,100  Level Washington Center
10:56AM 38.5056 -80.2694 177° South 154 177 8,100  Level Washington Center
10:57AM 38.4617 -80.2692 180° South 159 183 8,100  Level Washington Center
10:58AM 38.4200 -80.2667 177° South 159 183 8,100  Level Washington Center
10:59AM 38.3764 -80.2639 177° South 159 183 8,200  Climbing Washington Center
11:00AM 38.3328 -80.2611 177° South 159 183 8,200  Level Washington Center
11:01AM 38.2908 -80.2611 180° South 159 183 8,200  Level Washington Center
11:02AM 38.2494 -80.2586 177° South 159 183 8,200  Level Washington Center
11:03AM 38.2100 -80.2533 174° South 159 183 8,200  Level Washington Center
11:04AM 38.1661 -80.2533 180° South 159 183 8,300  Climbing Washington Center
11:05AM 38.1225 -80.2506 177° South 159 183 8,200 -60 Descending Washington Center
11:06AM 38.0767 -80.2450 175° South 159 183 8,200  Level Washington Center
11:07AM 38.0350 -80.2425 177° South 159 183 8,200  Level Washington Center
11:08AM 37.9933 -80.2425 180° South 159 183 8,200  Level Washington Center
11:09AM 37.9497 -80.2400 177° South 159 183 8,200  Level Washington Center
11:10AM 37.9122 -80.2375 177° South 159 183 8,200  Level Washington Center
11:11AM 37.8706 -80.2350 177° South 159 183 8,200  Level Washington Center
11:12AM 37.8269 -80.2297 175° South 159 183 8,200  Level Washington Center
11:13AM 37.7814 -80.2269 177° South 159 183 8,200  Level Washington Center
11:14AM 37.7397 -80.2217 174° South 159 183 8,300  Climbing Washington Center
11:15AM 37.6981 -80.2192 177° South 159 183 8,200  Descending Washington Center
11:16AM 37.6564 -80.2167 177° South 159 183 8,300  Climbing Washington Center
11:17AM 37.6214 -80.2092 170° South 159 183 8,200 -60 Descending Washington Center
11:18AM 37.5797 -80.2067 177° South 159 183 8,200  Level Washington Center
11:19AM 37.5361 -80.2039 177° South 159 183 8,200  Level Washington Center
11:20AM 37.4925 -80.1986 175° South 159 183 8,200  Level Washington Center
11:21AM 37.4508 -80.1961 177° South 159 183 8,200 -60 Level Washington Center
11:23AM 37.3675 -80.1886 176° South 159 183 8,100 -60 Descending Washington Center
11:24AM 37.3303 -80.1864 177° South 159 183 8,100  Level Washington Center
11:25AM 37.2886 -80.1839 177° South 159 183 8,100  Level Washington Center
11:27AM 37.2181 -80.1817 179° South  Level FlightAware Approximate
11:34AM 36.9513 -80.1734 179° South  Level FlightAware Approximate
11:35AM 36.9132 -80.1722 179° South  Level FlightAware Approximate
11:36AM 36.8751 -80.1710 179° South  Level FlightAware Approximate
11:37AM 36.8370 -80.1699 179° South  Level FlightAware Approximate
11:38AM 36.7989 -80.1687 179° South  Level FlightAware Approximate
11:39AM 36.7608 -80.1675 179° South  Level FlightAware Approximate
11:40AM 36.7227 -80.1662 178° South  Level FlightAware Approximate
11:41AM 36.6846 -80.1645 178° South  Level FlightAware Approximate
11:42AM 36.6465 -80.1629 178° South  Level FlightAware Approximate
11:43AM 36.6084 -80.1612 178° South  Level FlightAware Approximate
11:44AM 36.5703 -80.1595 178° South  Level FlightAware Approximate
11:45AM 36.5322 -80.1579 178° South  Level FlightAware Approximate
11:46AM 36.4941 -80.1562 178° South  Level FlightAware Approximate
11:47AM 36.4560 -80.1545 178° South  Level FlightAware Approximate
11:48AM 36.4179 -80.1529 178° South  Level FlightAware Approximate
11:49AM 36.3798 -80.1512 178° South  Level FlightAware Approximate
11:50AM 36.3417 -80.1496 178° South  Level FlightAware Approximate
11:51AM 36.3036 -80.1479 178° South  Level FlightAware Approximate
11:52AM 36.2655 -80.1462 178° South  Level FlightAware Approximate
11:53AM 36.2274 -80.1446 178° South  Level FlightAware Approximate
11:54AM 36.1893 -80.1430 178° South  Level FlightAware Approximate
11:55AM 36.1512 -80.1413 178° South  Level FlightAware Approximate
11:56AM 36.1131 -80.1396 178° South  Level FlightAware Approximate
11:57AM 36.0750 -80.1380 178° South  Level FlightAware Approximate
11:58AM 36.0369 -80.1364 178° South  Level FlightAware Approximate
11:59AM 35.9988 -80.1347 178° South  Level FlightAware Approximate
12:00PM 35.9607 -80.1330 177° South  Level FlightAware Approximate
12:01PM 35.9226 -80.1307 177° South  Level FlightAware Approximate
12:02PM 35.8845 -80.1285 177° South  Level FlightAware Approximate
12:02PM 35.6933 -80.1239 177° South 145 167 8,100  Level Atlanta Center
12:03PM 35.8465 -80.1262 177° South  Level FlightAware Approximate
12:04PM 35.6470 -80.1219 178° South  Level Estimated
12:04PM 35.8084 -80.1240 177° South  Level FlightAware Approximate
12:04PM 35.6158 -80.1125 178° South 145 167 8,200  Level Atlanta Center
12:05PM 35.7703 -80.1217 177° South  Level FlightAware Approximate
12:05PM 35.5761 -80.1092 176° South 144 166 8,100  Level Atlanta Center
12:06PM 35.7322 -80.1195 177° South  Level FlightAware Approximate
12:06PM 35.5322 -80.1061 177° South 142 163 8,200  Level Atlanta Center
12:07PM 35.6941 -80.1172 177° South  Level FlightAware Approximate
12:07PM 35.4925 -80.1031 176° South 144 166 8,200  Level Atlanta Center
12:08PM 35.6561 -80.1150 177° South  Level FlightAware Approximate
12:08PM 35.4569 -80.0997 176° South 142 163 8,200  Level Atlanta Center
12:09PM 35.4169 -80.0939 173° South 144 166 8,200  Level Atlanta Center
12:10PM 35.3772 -80.0906 176° South 142 163 8,200  Level Atlanta Center
12:12PM 35.3277 -80.0898 179° South  Level FlightAware Approximate
12:19PM 35.0608 -80.0854 179° South  Level FlightAware Approximate
12:20PM 35.0227 -80.0848 179° South  Level FlightAware Approximate
12:21PM 34.9846 -80.0842 179° South  Level FlightAware Approximate
12:22PM 34.9465 -80.0835 179° South  Level FlightAware Approximate
12:23PM 34.9083 -80.0833 180° South  Level FlightAware Approximate
12:24PM 34.8702 -80.0833 180° South  Level FlightAware Approximate
12:25PM 34.8321 -80.0824 178° South  Level FlightAware Approximate
12:26PM 34.7940 -80.0804 178° South  Level FlightAware Approximate
12:27PM 34.7559 -80.0783 178° South  Level FlightAware Approximate
12:28PM 34.7178 -80.0763 178° South  Level FlightAware Approximate
12:29PM 34.6797 -80.0743 178° South  Level FlightAware Approximate
12:30PM 34.6416 -80.0723 178° South  Level FlightAware Approximate
12:31PM 34.6035 -80.0703 178° South  Level FlightAware Approximate
12:32PM 34.5654 -80.0683 178° South  Level FlightAware Approximate
12:33PM 34.5274 -80.0663 178° South  Level FlightAware Approximate
12:34PM 34.4893 -80.0643 178° South  Level FlightAware Approximate
12:35PM 34.4512 -80.0623 178° South  Level FlightAware Approximate
12:36PM 34.4131 -80.0603 178° South  Level FlightAware Approximate
12:37PM 34.3750 -80.0583 178° South  Level FlightAware Approximate
12:38PM 34.3369 -80.0563 178° South  Level FlightAware Approximate
12:39PM 34.2988 -80.0543 178° South  Level FlightAware Approximate
12:40PM 34.2607 -80.0523 178° South  Level FlightAware Approximate
12:41PM 34.2226 -80.0503 178° South  Level FlightAware Approximate
12:42PM 34.1846 -80.0487 178° South  Level FlightAware Approximate
12:43PM 34.1465 -80.0472 178° South  Level FlightAware Approximate
12:44PM 34.1084 -80.0456 178° South  Level FlightAware Approximate
12:45PM 34.0703 -80.0441 178° South  Level FlightAware Approximate
12:46PM 34.0322 -80.0426 178° South  Level FlightAware Approximate
12:47PM 33.9941 -80.0411 178° South  Level FlightAware Approximate
12:48PM 33.9560 -80.0396 178° South  Level FlightAware Approximate
12:49PM 33.9179 -80.0380 178° South  Level FlightAware Approximate
12:50PM 33.8798 -80.0365 178° South  Level FlightAware Approximate
12:51PM 33.8417 -80.0350 178° South  Level FlightAware Approximate
12:52PM 33.8036 -80.0335 178° South  Level FlightAware Approximate
12:53PM 33.7655 -80.0319 178° South  Level FlightAware Approximate
12:54PM 33.7274 -80.0303 178° South  Level FlightAware Approximate
12:55PM 33.6893 -80.0287 178° South  Level FlightAware Approximate
12:56PM 33.6512 -80.0271 178° South  Level FlightAware Approximate
12:57PM 33.6131 -80.0255 178° South  Level FlightAware Approximate
12:58PM 33.5750 -80.0239 178° South  Level FlightAware Approximate
12:59PM 33.5369 -80.0223 178° South  Level FlightAware Approximate
01:00PM 33.4988 -80.0208 178° South  Level FlightAware Approximate
01:01PM 33.4607 -80.0192 178° South  Level FlightAware Approximate
01:02PM 33.4220 -80.0176 178° South  Level FlightAware Approximate
01:03PM 33.3834 -80.0161 178° South  Level FlightAware Approximate
01:04PM 33.3447 -80.0148 178° South  Level FlightAware Approximate
01:05PM 33.3060 -80.0135 178° South  Level FlightAware Approximate
01:06PM 33.2674 -80.0122 178° South  Level FlightAware Approximate
01:07PM 33.2287 -80.0109 178° South  Level FlightAware Approximate
01:08PM 33.1901 -80.0097 178° South  Level FlightAware Approximate
01:09PM 33.1514 -80.0084 178° South  Level FlightAware Approximate
01:10PM 33.1127 -80.0071 178° South  Level FlightAware Approximate
01:11PM 33.0741 -80.0058 178° South  Level FlightAware Approximate
01:12PM 33.0354 -80.0045 178° South  Level FlightAware Approximate
01:13PM 32.9968 -80.0032 178° South  Level FlightAware Approximate
01:14PM 32.9581 -80.0019 178° South  Level FlightAware Approximate
01:15PM 32.9194 -80.0006 178° South  Level FlightAware Approximate
01:16PM 32.8808 -80.0000 180° South  Level FlightAware Approximate
01:17PM 32.8421 -80.0000 180° South  Level FlightAware Approximate
01:18PM 32.8034 -80.0000 180° South  Level FlightAware Approximate
01:19PM 32.7647 -80.0000 180° South  Level FlightAware Approximate
01:20PM 32.7261 -80.0000 180° South  Level FlightAware Approximate
01:21PM 32.7000 -80.0000 180° South  Level FlightAware Approximate
01:22PM 32.7010 -80.0033 180° South  Level Estimated
01:23PM 32.7000 -80.0000 180° South  Level FlightAware Approximate
01:24PM 32.7010 -80.0033 180° South  Level Estimated
01:25PM 32.7000 -80.0000 180° South  Level FlightAware Approximate
01:26PM 32.7010 -80.0033 180° South  Level Estimated
01:27PM 32.7000 -80.0000 180° South  Level FlightAware Approximate
01:28PM 32.7010 -80.0033 180° South  Level Estimated
01:29PM 32.7000 -80.0000 180° South  Level FlightAware Approximate
01:30PM 32.7010 -80.0033 180° South  Level Estimated
01:31PM 32.7000 -80.0000 180° South  Level FlightAware Approximate
01:32PM 32.7010 -80.0033 180° South  Level Estimated
01:33PM 32.7000 -80.0000 180° South  Level FlightAware Approximate
01:34PM 32.7010 -80.0033 180° South  Level Estimated
01:35PM 32.7000 -80.0000 180° South  Level FlightAware Approximate